Time;durP1;ratioP1;P1;durP2;ratioP2;P2;SDS_P1;SDS_P2;PMS_P1;PMS_P2;Temp;Humidity;BMP_temperature;BMP_pressure;BME280_temperature;BME280_humidity;BME280_pressure;Samples;Min_cycle;Max_cycle;Signal;HPM_P1;HPM_P2
2023/12/03 00:01:29;;;;;;;45.70;18.75;;;-0.40;99.90;;;;;;4968757;28;20050;-73
2023/12/03 00:04:15;;;;;;;51.83;19.45;;;-0.40;99.90;;;;;;4963759;28;20428;-73
2023/12/03 00:07:03;;;;;;;43.65;20.52;;;-0.30;99.90;;;;;;4960404;28;20513;-73
2023/12/03 00:09:50;;;;;;;;;;;-0.40;99.90;;;;;;4962168;28;20042;-75
2023/12/03 00:12:38;;;;;;;42.50;18.15;;;-0.30;99.90;;;;;;4958741;28;19940;-72
2023/12/03 00:15:28;;;;;;;48.15;20.27;;;-0.20;99.90;;;;;;4975484;28;20133;-73
2023/12/03 00:18:16;;;;;;;44.88;19.05;;;-0.20;99.90;;;;;;4971812;28;20114;-73
2023/12/03 00:21:10;;;;;;;42.47;18.10;;;-0.20;99.90;;;;;;4959887;28;20104;-73
2023/12/03 00:23:59;;;;;;;44.75;18.58;;;-0.20;99.90;;;;;;4961132;28;20042;-73
2023/12/03 00:26:46;;;;;;;43.65;18.17;;;-0.10;99.90;;;;;;4968636;28;20742;-72
2023/12/03 00:29:33;;;;;;;44.03;19.15;;;-0.20;99.90;;;;;;4970873;28;20065;-72
2023/12/03 00:32:21;;;;;;;37.88;17.88;;;-0.20;99.90;;;;;;4942847;28;20740;-72
2023/12/03 00:35:08;;;;;;;44.25;17.05;;;-0.20;99.90;;;;;;4969994;28;20042;-72
2023/12/03 00:37:56;;;;;;;41.42;18.35;;;-0.20;99.90;;;;;;4957649;28;20240;-72
2023/12/03 00:40:44;;;;;;;42.38;18.58;;;-0.20;99.90;;;;;;4967931;28;20654;-72
2023/12/03 00:43:31;;;;;;;43.47;18.65;;;-0.20;99.90;;;;;;4955985;28;20047;-72
2023/12/03 00:46:22;;;;;;;42.95;18.65;;;-0.20;99.90;;;;;;4968990;28;20554;-72
2023/12/03 00:49:10;;;;;;;44.20;17.45;;;-0.20;99.90;;;;;;4969059;28;20045;-72
2023/12/03 00:51:59;;;;;;;44.17;19.02;;;-0.10;99.90;;;;;;4968236;28;20093;-72
2023/12/03 00:54:46;;;;;;;41.38;18.92;;;-0.10;99.90;;;;;;4934421;28;20055;-72
2023/12/03 00:57:34;;;;;;;37.05;17.38;;;-0.10;99.90;;;;;;4969264;28;20046;-72
2023/12/03 01:00:21;;;;;;;40.28;18.02;;;-0.10;99.90;;;;;;4957500;28;20051;-72
2023/12/03 01:03:07;;;;;;;42.92;18.60;;;-0.20;99.90;;;;;;4958618;28;20046;-72
2023/12/03 01:05:55;;;;;;;43.15;18.33;;;-0.20;99.90;;;;;;4955578;28;20035;-72
2023/12/03 01:08:42;;;;;;;40.30;17.60;;;-0.20;99.90;;;;;;4968837;28;20042;-72
2023/12/03 01:11:29;;;;;;;45.88;20.35;;;-0.10;99.90;;;;;;4944724;28;20050;-73
2023/12/03 01:14:18;;;;;;;44.72;18.92;;;-0.10;99.90;;;;;;4947086;28;20042;-72
2023/12/03 01:17:05;;;;;;;42.38;18.75;;;-0.20;99.90;;;;;;4941683;28;20043;-72
2023/12/03 01:19:52;;;;;;;46.28;20.02;;;-0.20;99.90;;;;;;4972152;28;20049;-72
2023/12/03 01:22:39;;;;;;;39.83;17.27;;;-0.20;99.90;;;;;;4964141;28;20046;-72
2023/12/03 01:25:27;;;;;;;46.00;20.17;;;-0.20;99.90;;;;;;4951072;28;20038;-72
2023/12/03 01:28:16;;;;;;;46.55;19.63;;;-0.20;99.90;;;;;;4973955;28;20038;-72
2023/12/03 01:31:04;;;;;;;44.10;18.30;;;-0.20;99.90;;;;;;4960616;28;20177;-72
2023/12/03 01:33:51;;;;;;;43.30;18.65;;;-0.20;99.90;;;;;;4959468;28;20140;-72
2023/12/03 01:36:39;;;;;;;38.38;18.13;;;-0.20;99.90;;;;;;4945398;28;20056;-73
2023/12/03 01:39:26;;;;;;;37.50;16.73;;;-0.20;99.90;;;;;;4972879;28;20057;-72
2023/12/03 01:42:13;;;;;;;27.98;12.43;;;-0.20;99.90;;;;;;4972373;28;20054;-72
2023/12/03 01:45:01;;;;;;;38.87;18.00;;;-0.20;99.90;;;;;;4949325;28;20117;-72
2023/12/03 01:47:48;;;;;;;39.72;17.85;;;-0.20;99.90;;;;;;4959137;28;20332;-72
2023/12/03 01:50:36;;;;;;;43.03;19.25;;;-0.10;99.90;;;;;;4945979;28;20050;-72
2023/12/03 01:53:23;;;;;;;43.40;18.88;;;-0.10;99.90;;;;;;4960499;28;20144;-72
2023/12/03 01:56:11;;;;;;;38.57;16.47;;;-0.10;99.90;;;;;;4960758;28;20986;-73
2023/12/03 01:58:58;;;;;;;41.78;17.50;;;-0.10;99.90;;;;;;4962924;28;20046;-72
2023/12/03 02:01:45;;;;;;;41.55;17.63;;;-0.20;99.90;;;;;;4959310;28;20050;-73
2023/12/03 02:04:33;;;;;;;41.00;18.02;;;-0.10;99.90;;;;;;4960675;28;20049;-73
2023/12/03 02:07:20;;;;;;;39.00;17.95;;;-0.10;99.90;;;;;;4945935;28;20614;-72
2023/12/03 02:10:08;;;;;;;40.55;18.38;;;-0.10;99.90;;;;;;4961313;28;20046;-72
2023/12/03 02:12:57;;;;;;;40.70;17.88;;;-0.10;99.90;;;;;;4958736;28;20048;-72
2023/12/03 02:15:45;;;;;;;39.30;17.23;;;-0.10;99.90;;;;;;4959723;28;20054;-72
2023/12/03 02:18:36;;;;;;;43.10;17.38;;;-0.20;99.90;;;;;;4958581;28;20042;-72
2023/12/03 02:21:23;;;;;;;39.30;18.88;;;-0.20;99.90;;;;;;4974268;28;20045;-72
2023/12/03 02:24:10;;;;;;;41.92;19.67;;;-0.20;99.90;;;;;;4961277;28;20057;-72
2023/12/03 02:26:57;;;;;;;51.95;22.75;;;-0.30;99.90;;;;;;4962179;28;20046;-72
2023/12/03 02:29:48;;;;;;;38.90;18.20;;;-0.20;99.90;;;;;;4960990;28;20088;-72
2023/12/03 02:32:35;;;;;;;47.47;20.52;;;-0.20;99.90;;;;;;4973364;28;20038;-72
2023/12/03 02:35:23;;;;;;;43.78;20.08;;;-0.20;99.90;;;;;;4974572;28;20046;-72
2023/12/03 02:38:10;;;;;;;42.08;19.05;;;-0.20;99.90;;;;;;4960019;28;20047;-73
2023/12/03 02:40:58;;;;;;;40.78;18.70;;;-0.10;99.90;;;;;;4958883;28;20042;-72
2023/12/03 02:43:45;;;;;;;;;;;-0.10;99.90;;;;;;4961979;28;20105;-72
2023/12/03 02:46:32;;;;;;;40.47;16.23;;;-0.10;99.90;;;;;;4972443;28;20321;-72
2023/12/03 02:49:20;;;;;;;43.42;18.95;;;-0.10;99.90;;;;;;4959237;28;20050;-72
2023/12/03 02:52:09;;;;;;;40.55;17.83;;;-0.10;99.90;;;;;;4957687;28;20046;-72
2023/12/03 02:54:56;;;;;;;39.15;17.55;;;-0.10;99.90;;;;;;4960029;28;20054;-72
2023/12/03 02:57:44;;;;;;;42.83;19.90;;;-0.10;99.90;;;;;;4972282;28;20356;-72
2023/12/03 03:00:31;;;;;;;44.08;19.35;;;-0.10;99.90;;;;;;4974560;28;20088;-72
2023/12/03 03:03:18;;;;;;;45.03;19.23;;;-0.10;99.90;;;;;;4945293;28;20054;-73
2023/12/03 03:06:06;;;;;;;42.17;17.70;;;-0.10;99.90;;;;;;4960066;28;20081;-72
2023/12/03 03:08:53;;;;;;;42.83;17.30;;;0.00;99.90;;;;;;4945683;28;20161;-72
2023/12/03 03:11:40;;;;;;;42.08;18.27;;;0.00;99.90;;;;;;4957572;28;20050;-72
2023/12/03 03:14:28;;;;;;;41.17;18.20;;;0.00;99.90;;;;;;4945625;28;20046;-72
2023/12/03 03:17:15;;;;;;;47.17;19.70;;;0.00;99.90;;;;;;4960276;28;20042;-72
2023/12/03 03:20:01;;;;;;;44.30;19.05;;;0.00;99.90;;;;;;4948993;28;20034;-72
2023/12/03 03:22:49;;;;;;;46.65;18.27;;;0.00;99.90;;;;;;4958582;28;20092;-72
2023/12/03 03:25:37;;;;;;;43.13;18.98;;;0.00;99.90;;;;;;4961919;28;20084;-73
2023/12/03 03:28:26;;;;;;;43.20;18.55;;;0.00;99.90;;;;;;4962061;28;20486;-72
2023/12/03 03:31:13;;;;;;;42.40;19.70;;;0.00;99.90;;;;;;4944192;28;20034;-72
2023/12/03 03:34:01;;;;;;;41.38;18.70;;;0.10;99.90;;;;;;4959363;28;20100;-72
2023/12/03 03:36:48;;;;;;;41.30;17.60;;;0.00;99.90;;;;;;4958403;28;20113;-72
2023/12/03 03:39:35;;;;;;;42.10;19.05;;;0.00;99.90;;;;;;4956487;28;20133;-72
2023/12/03 03:42:22;;;;;;;47.78;20.02;;;0.10;99.90;;;;;;4961080;28;20344;-72
2023/12/03 03:45:09;;;;;;;45.50;19.20;;;0.00;99.90;;;;;;4983992;28;20097;-72
2023/12/03 03:47:57;;;;;;;43.67;18.88;;;0.10;99.90;;;;;;5008491;28;20336;-72
2023/12/03 03:50:44;;;;;;;48.92;19.88;;;0.00;99.90;;;;;;4990002;28;20766;-72
2023/12/03 03:53:30;;;;;;;33.00;13.07;;;0.10;99.90;;;;;;5011869;28;20048;-72
2023/12/03 03:56:17;;;;;;;43.33;19.05;;;0.10;99.90;;;;;;5016878;28;20746;-72
2023/12/03 03:59:05;;;;;;;35.33;16.23;;;0.10;99.90;;;;;;4996246;28;20690;-72
2023/12/03 04:01:52;;;;;;;42.05;18.63;;;0.10;99.90;;;;;;5005292;28;20106;-72
2023/12/03 04:04:39;;;;;;;38.33;15.77;;;0.10;99.90;;;;;;4994616;28;20038;-72
2023/12/03 04:07:27;;;;;;;40.90;19.15;;;0.10;99.90;;;;;;5005022;28;20091;-72
2023/12/03 04:10:13;;;;;;;42.97;19.95;;;0.10;99.90;;;;;;5010224;28;20038;-73
2023/12/03 04:13:00;;;;;;;46.35;21.30;;;0.00;99.90;;;;;;4979065;28;20049;-73
2023/12/03 04:15:47;;;;;;;44.30;19.20;;;0.00;99.90;;;;;;5013219;28;20053;-73
2023/12/03 04:18:37;;;;;;;43.90;18.47;;;0.00;99.90;;;;;;4988562;28;20045;-73
2023/12/03 04:21:24;;;;;;;43.33;18.98;;;0.00;99.90;;;;;;4991399;28;20296;-73
2023/12/03 04:24:11;;;;;;;46.63;20.43;;;0.00;99.90;;;;;;5004419;28;20049;-73
2023/12/03 04:26:59;;;;;;;47.08;18.77;;;0.00;99.90;;;;;;4996765;28;20104;-73
2023/12/03 04:29:46;;;;;;;46.55;20.85;;;0.00;99.90;;;;;;5003033;28;20565;-73
2023/12/03 04:32:32;;;;;;;49.40;21.07;;;0.00;99.90;;;;;;5007245;28;20034;-73
2023/12/03 04:35:18;;;;;;;50.83;23.05;;;0.00;99.90;;;;;;4987336;28;20042;-73
2023/12/03 04:38:04;;;;;;;51.17;22.77;;;0.00;99.90;;;;;;5004596;28;20050;-74
2023/12/03 04:40:52;;;;;;;47.40;20.92;;;0.00;99.90;;;;;;5001840;28;20048;-73
2023/12/03 04:43:38;;;;;;;;;;;0.00;99.90;;;;;;5002650;28;20037;-74
2023/12/03 04:46:24;;;;;;;46.85;19.83;;;0.00;99.90;;;;;;5019053;28;19917;-73
2023/12/03 04:49:10;;;;;;;52.92;21.58;;;0.00;99.90;;;;;;4982161;28;20124;-73
2023/12/03 04:51:56;;;;;;;50.72;21.98;;;0.00;99.90;;;;;;5001289;28;20419;-74
2023/12/03 04:54:42;;;;;;;46.30;21.38;;;0.00;99.90;;;;;;5007755;28;20057;-73
2023/12/03 04:57:28;;;;;;;51.13;22.95;;;0.00;99.90;;;;;;5001732;28;20045;-73
2023/12/03 05:00:14;;;;;;;51.42;20.55;;;0.00;99.90;;;;;;5022908;28;20042;-73
2023/12/03 05:03:00;;;;;;;52.28;22.08;;;0.00;99.90;;;;;;4989707;28;20503;-72
2023/12/03 05:05:46;;;;;;;57.65;25.10;;;0.00;99.90;;;;;;5007104;28;20072;-72
2023/12/03 05:08:32;;;;;;;52.35;24.10;;;0.10;99.90;;;;;;5010374;28;20121;-72
2023/12/03 05:11:18;;;;;;;52.17;23.50;;;0.10;99.90;;;;;;4984834;28;20375;-73
2023/12/03 05:14:05;;;;;;;51.95;23.65;;;0.10;99.90;;;;;;4974928;28;20046;-72
2023/12/03 05:16:51;;;;;;;48.92;21.75;;;0.10;99.90;;;;;;4992056;28;20046;-72
2023/12/03 05:19:37;;;;;;;51.60;21.70;;;0.10;99.90;;;;;;5004436;28;20042;-72
2023/12/03 05:22:23;;;;;;;53.72;21.77;;;0.10;99.90;;;;;;5016960;28;20041;-72
2023/12/03 05:25:10;;;;;;;50.78;23.90;;;0.00;99.90;;;;;;5005115;28;20113;-72
2023/12/03 05:27:56;;;;;;;59.13;26.25;;;0.00;99.90;;;;;;5018118;28;20041;-72
2023/12/03 05:30:42;;;;;;;52.22;22.60;;;0.00;99.90;;;;;;5000375;28;20048;-72
2023/12/03 05:33:28;;;;;;;48.17;23.05;;;0.00;99.90;;;;;;5004273;28;20061;-72
2023/12/03 05:36:22;;;;;;;55.38;24.58;;;0.00;99.90;;;;;;4998048;28;20466;-72
2023/12/03 05:39:09;;;;;;;50.40;22.30;;;0.00;99.90;;;;;;5008241;28;20041;-72
2023/12/03 05:41:55;;;;;;;58.22;28.08;;;0.10;99.90;;;;;;5013434;28;20080;-72
2023/12/03 05:44:41;;;;;;;50.58;23.05;;;0.10;99.90;;;;;;4986413;28;20034;-72
2023/12/03 05:47:27;;;;;;;51.63;23.75;;;0.10;99.90;;;;;;5004210;28;20048;-72
2023/12/03 05:50:13;;;;;;;52.75;23.20;;;0.10;99.90;;;;;;4988775;28;20041;-72
2023/12/03 05:52:59;;;;;;;53.28;24.88;;;0.10;99.90;;;;;;5007543;28;20041;-72
2023/12/03 05:55:45;;;;;;;50.33;24.05;;;0.10;99.90;;;;;;4986586;28;20141;-72
2023/12/03 05:58:31;;;;;;;54.33;23.80;;;0.10;99.90;;;;;;4972649;28;20046;-72
2023/12/03 06:01:24;;;;;;;46.75;22.52;;;0.10;99.90;;;;;;4976387;28;20375;-72
2023/12/03 06:04:11;;;;;;;50.70;24.48;;;0.10;99.90;;;;;;4968231;28;20065;-72
2023/12/03 06:06:57;;;;;;;53.40;25.35;;;0.20;99.90;;;;;;4976804;28;20034;-72
2023/12/03 06:09:43;;;;;;;49.38;23.45;;;0.20;99.90;;;;;;4990640;28;20038;-72
2023/12/03 06:12:29;;;;;;;48.13;22.08;;;0.20;99.90;;;;;;4997962;28;20042;-72
2023/12/03 06:15:15;;;;;;;54.33;23.25;;;0.20;99.90;;;;;;4979749;28;20034;-72
2023/12/03 06:18:01;;;;;;;53.28;25.58;;;0.20;99.90;;;;;;4981658;28;20038;-72
2023/12/03 06:20:48;;;;;;;51.88;23.38;;;0.20;99.90;;;;;;4976768;28;20039;-72
2023/12/03 06:23:34;;;;;;;52.58;23.75;;;0.20;99.90;;;;;;4978756;28;20131;-72
2023/12/03 06:26:20;;;;;;;52.50;25.63;;;0.20;99.90;;;;;;4962513;28;20374;-72
2023/12/03 06:29:06;;;;;;;52.42;22.67;;;0.20;99.90;;;;;;4989815;28;20038;-72
2023/12/03 06:31:53;;;;;;;56.20;24.88;;;0.20;99.90;;;;;;4975848;28;20126;-72
2023/12/03 06:34:39;;;;;;;49.75;23.88;;;0.20;99.90;;;;;;4973142;28;20317;-72
2023/12/03 06:37:25;;;;;;;52.35;25.80;;;0.20;99.90;;;;;;4979509;28;20030;-72
2023/12/03 06:40:11;;;;;;;55.63;24.85;;;0.20;99.90;;;;;;5008972;28;20053;-73
2023/12/03 06:42:57;;;;;;;54.58;26.02;;;0.30;99.90;;;;;;4971925;28;20486;-73
2023/12/03 06:45:43;;;;;;;49.30;24.05;;;0.30;99.90;;;;;;4976606;28;20070;-72
2023/12/03 06:48:29;;;;;;;52.22;25.25;;;0.30;99.90;;;;;;4986268;28;20351;-73
2023/12/03 06:51:15;;;;;;;54.47;25.23;;;0.30;99.90;;;;;;4971237;28;20133;-73
2023/12/03 06:54:02;;;;;;;50.65;23.40;;;0.30;99.90;;;;;;4989026;28;20054;-73
2023/12/03 06:56:48;;;;;;;54.45;25.75;;;0.30;99.90;;;;;;4964967;28;20048;-73
2023/12/03 06:59:34;;;;;;;53.80;25.08;;;0.30;99.90;;;;;;4986945;28;20052;-73
2023/12/03 07:02:20;;;;;;;57.97;26.75;;;0.40;99.90;;;;;;4983421;28;20042;-73
2023/12/03 07:05:07;;;;;;;53.67;24.40;;;0.40;99.90;;;;;;4976415;28;20093;-73
2023/12/03 07:07:53;;;;;;;53.17;24.05;;;0.40;99.90;;;;;;4999218;28;20052;-73
2023/12/03 07:10:39;;;;;;;55.22;25.75;;;0.40;99.90;;;;;;5006240;28;20042;-73
2023/12/03 07:13:26;;;;;;;56.47;25.75;;;0.40;99.90;;;;;;4970703;28;20046;-73
2023/12/03 07:16:12;;;;;;;54.40;25.38;;;0.40;99.90;;;;;;4982643;28;20046;-73
2023/12/03 07:18:58;;;;;;;56.38;26.92;;;0.40;99.90;;;;;;4975631;28;20045;-73
2023/12/03 07:21:44;;;;;;;55.10;25.08;;;0.30;99.90;;;;;;4998381;28;20038;-73
2023/12/03 07:24:30;;;;;;;59.60;26.48;;;0.40;99.90;;;;;;4995744;28;20406;-73
2023/12/03 07:27:17;;;;;;;58.28;27.17;;;0.30;99.90;;;;;;4997829;28;20044;-73
2023/12/03 07:30:05;;;;;;;58.08;28.63;;;0.30;99.90;;;;;;4972010;28;20038;-73
2023/12/03 07:32:52;;;;;;;62.85;28.23;;;0.40;99.90;;;;;;4974326;28;20038;-73
2023/12/03 07:35:38;;;;;;;67.38;28.15;;;0.40;99.90;;;;;;4993453;28;20121;-73
2023/12/03 07:38:24;;;;;;;57.20;27.60;;;0.40;99.90;;;;;;5000694;28;20091;-74
2023/12/03 07:41:10;;;;;;;60.33;27.30;;;0.40;99.90;;;;;;4997190;28;20141;-73
2023/12/03 07:43:56;;;;;;;61.28;28.00;;;0.40;99.90;;;;;;4996929;28;20137;-74
2023/12/03 07:46:43;;;;;;;58.10;27.75;;;0.40;99.90;;;;;;4992936;28;20070;-74
2023/12/03 07:49:29;;;;;;;60.97;29.52;;;0.40;99.90;;;;;;4991402;28;20042;-73
2023/12/03 07:52:15;;;;;;;55.92;27.23;;;0.50;99.90;;;;;;4960403;28;20115;-73
2023/12/03 07:55:01;;;;;;;56.97;27.80;;;0.50;99.90;;;;;;4993942;28;20051;-73
2023/12/03 07:57:49;;;;;;;44.80;19.40;;;0.50;99.90;;;;;;4982869;28;20113;-73
2023/12/03 08:00:36;;;;;;;58.47;26.33;;;0.50;99.90;;;;;;4999314;28;20430;-73
2023/12/03 08:03:22;;;;;;;56.05;27.40;;;0.50;99.90;;;;;;4999827;28;20470;-73
2023/12/03 08:06:08;;;;;;;59.30;28.77;;;0.50;99.90;;;;;;5000576;28;20053;-73
2023/12/03 08:08:54;;;;;;;55.70;26.77;;;0.50;99.90;;;;;;4990147;28;20040;-73
2023/12/03 08:11:41;;;;;;;59.88;29.27;;;0.50;99.90;;;;;;4999322;28;20038;-73
2023/12/03 08:14:27;;;;;;;63.80;28.50;;;0.50;99.90;;;;;;4980899;28;20197;-73
2023/12/03 08:17:13;;;;;;;67.55;32.70;;;0.50;99.90;;;;;;5002637;28;20038;-73
2023/12/03 08:19:59;;;;;;;63.45;28.67;;;0.40;99.90;;;;;;4994253;28;20125;-73
2023/12/03 08:22:45;;;;;;;65.50;29.40;;;0.40;99.90;;;;;;4975025;28;20042;-72
2023/12/03 08:25:31;;;;;;;67.68;32.13;;;0.50;99.90;;;;;;5011012;28;20040;-72
2023/12/03 08:28:17;;;;;;;61.38;29.60;;;0.50;99.90;;;;;;4985767;28;20124;-72
2023/12/03 08:31:03;;;;;;;74.13;31.23;;;0.50;99.90;;;;;;4976915;28;20042;-72
2023/12/03 08:33:50;;;;;;;70.47;29.80;;;0.60;99.90;;;;;;4994562;28;20068;-72
2023/12/03 08:36:36;;;;;;;67.68;29.88;;;0.50;99.90;;;;;;4984003;28;20077;-72
2023/12/03 08:39:22;;;;;;;63.30;30.30;;;0.50;99.90;;;;;;4974647;28;20396;-72
2023/12/03 08:42:08;;;;;;;71.80;33.40;;;0.60;99.90;;;;;;4977080;28;20038;-72
2023/12/03 08:44:54;;;;;;;74.45;32.00;;;0.60;99.90;;;;;;4975379;28;20443;-72
2023/12/03 08:47:41;;;;;;;70.47;31.83;;;0.60;99.90;;;;;;5001955;28;20038;-72
2023/12/03 08:50:29;;;;;;;72.50;31.92;;;0.60;99.90;;;;;;5009226;28;20630;-72
2023/12/03 08:53:15;;;;;;;71.35;30.75;;;0.60;99.90;;;;;;4996514;28;20097;-72
2023/12/03 08:56:02;;;;;;;75.57;31.83;;;0.60;99.90;;;;;;4986903;28;20053;-72
2023/12/03 08:58:48;;;;;;;73.72;33.15;;;0.60;99.90;;;;;;5002866;28;20042;-72
2023/12/03 09:01:34;;;;;;;72.80;34.83;;;0.60;99.90;;;;;;4976445;28;20104;-72
2023/12/03 09:04:20;;;;;;;68.38;32.25;;;0.70;99.90;;;;;;4997067;28;20390;-72
2023/12/03 09:07:06;;;;;;;83.28;36.83;;;0.70;99.90;;;;;;4977319;28;20101;-72
2023/12/03 09:09:52;;;;;;;78.15;35.05;;;0.70;99.90;;;;;;4980550;28;20034;-72
2023/12/03 09:12:39;;;;;;;83.25;38.88;;;0.70;99.90;;;;;;4982264;28;20099;-72
2023/12/03 09:15:25;;;;;;;89.78;37.92;;;0.70;99.90;;;;;;4992947;28;20046;-72
2023/12/03 09:18:11;;;;;;;85.88;37.67;;;0.80;99.90;;;;;;4990864;28;20046;-72
2023/12/03 09:20:57;;;;;;;85.43;35.72;;;0.80;99.90;;;;;;4986088;28;20124;-72
2023/12/03 09:23:43;;;;;;;77.05;33.75;;;0.70;99.90;;;;;;5009461;28;20038;-72
2023/12/03 09:26:30;;;;;;;82.32;34.90;;;0.80;99.90;;;;;;4988247;28;20072;-72
2023/12/03 09:29:16;;;;;;;76.95;35.30;;;0.80;99.90;;;;;;5015319;28;20042;-72
2023/12/03 09:32:04;;;;;;;73.50;32.40;;;0.80;99.90;;;;;;5017194;28;20089;-72
2023/12/03 09:34:50;;;;;;;76.45;32.88;;;0.90;99.90;;;;;;4979281;28;20520;-72
2023/12/03 09:37:36;;;;;;;86.38;33.97;;;0.80;99.90;;;;;;5011620;28;20100;-72
2023/12/03 09:40:23;;;;;;;79.18;34.03;;;0.80;99.90;;;;;;4970631;28;20352;-72
2023/12/03 09:43:09;;;;;;;80.47;32.72;;;0.90;99.90;;;;;;5000645;28;20050;-72
2023/12/03 09:45:55;;;;;;;82.28;35.78;;;0.90;99.90;;;;;;4987061;28;20129;-72
2023/12/03 09:48:42;;;;;;;77.88;32.70;;;0.90;99.90;;;;;;4965777;28;20039;-72
2023/12/03 09:51:29;;;;;;;68.28;29.02;;;1.00;99.90;;;;;;4952137;28;20049;-72
2023/12/03 09:54:15;;;;;;;80.10;34.50;;;1.00;99.90;;;;;;4992771;28;20057;-72
2023/12/03 09:57:05;;;;;;;79.93;32.22;;;1.00;99.90;;;;;;4992784;28;20144;-72
2023/12/03 09:59:54;;;;;;;88.95;35.17;;;1.00;99.90;;;;;;4991971;28;20041;-73
2023/12/03 10:02:40;;;;;;;82.97;35.33;;;1.00;99.90;;;;;;4979924;28;20046;-72
2023/12/03 10:05:26;;;;;;;82.38;34.65;;;1.00;99.90;;;;;;4963911;28;20105;-73
2023/12/03 10:08:13;;;;;;;79.97;34.30;;;1.00;99.90;;;;;;4982884;28;20038;-72
2023/12/03 10:11:02;;;;;;;73.30;32.20;;;1.00;99.90;;;;;;4982865;28;20045;-72
2023/12/03 10:13:50;;;;;;;78.68;33.80;;;1.00;99.90;;;;;;4961461;28;20262;-71
2023/12/03 10:16:36;;;;;;;79.45;33.97;;;1.00;99.90;;;;;;4967924;28;20071;-72
2023/12/03 10:19:26;;;;;;;79.82;33.63;;;1.10;99.90;;;;;;4982654;28;20099;-72
2023/12/03 10:22:12;;;;;;;71.50;32.58;;;1.20;99.90;;;;;;4983633;28;20120;-73
2023/12/03 10:24:58;;;;;;;71.03;32.28;;;1.20;99.90;;;;;;4981601;28;20035;-72
2023/12/03 10:27:45;;;;;;;72.88;31.98;;;1.20;99.90;;;;;;5015999;28;20037;-74
2023/12/03 10:30:32;;;;;;;75.28;33.58;;;1.20;99.90;;;;;;4982580;28;20049;-74
2023/12/03 10:33:18;;;;;;;71.22;31.42;;;1.20;99.90;;;;;;4966789;28;20124;-74
2023/12/03 10:36:04;;;;;;;72.53;32.90;;;1.20;99.90;;;;;;5007249;28;20068;-74
2023/12/03 10:38:53;;;;;;;68.63;30.02;;;1.30;99.90;;;;;;4987863;28;20049;-73
2023/12/03 10:41:40;;;;;;;71.72;30.67;;;1.30;99.90;;;;;;4978450;28;20038;-73
2023/12/03 10:44:28;;;;;;;75.07;33.08;;;1.30;99.90;;;;;;5001452;28;20129;-73
2023/12/03 10:47:14;;;;;;;75.35;32.78;;;1.30;99.90;;;;;;4975354;28;20414;-73
2023/12/03 10:50:02;;;;;;;82.07;32.55;;;1.30;99.90;;;;;;4983927;28;20038;-73
2023/12/03 10:52:47;;;;;;;;;;;1.30;99.90;;;;;;5007331;28;20378;-73
2023/12/03 10:55:34;;;;;;;75.15;32.17;;;1.30;99.90;;;;;;5009122;28;20246;-73
2023/12/03 10:58:20;;;;;;;77.55;32.20;;;1.40;99.90;;;;;;5013700;28;20415;-73
2023/12/03 11:01:20;;;;;;;81.97;32.35;;;1.40;99.90;;;;;;4966871;28;20456;-73
2023/12/03 11:05:05;;;;;;;81.75;34.45;;;1.30;99.90;;;;;;4954118;28;20065;-73
2023/12/03 11:07:51;;;;;;;64.90;29.48;;;1.40;99.90;;;;;;4970885;28;20042;-73
2023/12/03 11:10:39;;;;;;;71.90;31.95;;;1.40;99.90;;;;;;4985750;28;20076;-72
2023/12/03 11:13:26;;;;;;;;;;;1.40;99.90;;;;;;4974749;28;20053;-73
2023/12/03 11:16:13;;;;;;;71.15;31.42;;;1.40;99.90;;;;;;5002989;28;20000;-73
2023/12/03 11:19:02;;;;;;;72.93;30.23;;;1.40;99.90;;;;;;5004622;28;20582;-73
2023/12/03 11:22:20;;;;;;;66.95;28.30;;;1.40;99.90;;;;;;4990072;28;20101;-73
2023/12/03 11:25:13;;;;;;;71.30;30.00;;;1.40;99.90;;;;;;4975278;28;20039;-73
2023/12/03 11:27:59;;;;;;;65.88;28.23;;;1.40;99.90;;;;;;4983772;28;20509;-73
2023/12/03 11:30:46;;;;;;;71.80;30.50;;;1.40;99.90;;;;;;5021192;28;20041;-74
2023/12/03 11:33:32;;;;;;;70.18;30.30;;;1.40;99.90;;;;;;4969833;28;20123;-73
2023/12/03 11:36:18;;;;;;;66.47;30.85;;;1.40;99.90;;;;;;5000581;28;20091;-73
2023/12/03 11:39:06;;;;;;;70.65;30.23;;;1.40;99.90;;;;;;5000871;28;20042;-73
2023/12/03 11:41:59;;;;;;;75.20;29.90;;;1.40;99.90;;;;;;4965020;28;20058;-73
2023/12/03 11:44:45;;;;;;;67.32;28.13;;;1.40;99.90;;;;;;4985405;28;20043;-73
2023/12/03 11:47:32;;;;;;;65.32;29.08;;;1.40;99.90;;;;;;4981870;28;20081;-73
2023/12/03 11:50:18;;;;;;;73.47;30.75;;;1.40;99.90;;;;;;4981672;28;20371;-73
2023/12/03 11:53:07;;;;;;;68.97;31.55;;;1.40;99.90;;;;;;4988128;28;20050;-73
2023/12/03 11:55:53;;;;;;;74.95;31.63;;;1.40;99.90;;;;;;5008423;28;20052;-73
2023/12/03 11:58:39;;;;;;;71.07;31.52;;;1.40;99.90;;;;;;4981370;28;20057;-73
2023/12/03 12:01:25;;;;;;;71.95;32.65;;;1.50;99.90;;;;;;4995248;28;20148;-74
2023/12/03 12:04:24;;;;;;;76.38;32.88;;;1.50;99.90;;;;;;4985780;28;20080;-73
2023/12/03 12:07:16;;;;;;;75.35;32.30;;;1.50;99.90;;;;;;4975556;28;20150;-73
2023/12/03 12:10:07;;;;;;;69.35;31.83;;;1.50;99.90;;;;;;5002569;28;20065;-76
2023/12/03 12:12:53;;;;;;;83.28;35.47;;;1.50;99.90;;;;;;5000013;28;20374;-75
2023/12/03 12:15:41;;;;;;;74.30;31.88;;;1.60;99.90;;;;;;5002041;28;20056;-74
2023/12/03 12:18:27;;;;;;;78.38;32.08;;;1.80;99.90;;;;;;5005824;28;20089;-74
2023/12/03 12:21:14;;;;;;;68.93;30.77;;;1.90;99.90;;;;;;4963962;28;20051;-74
2023/12/03 12:24:00;;;;;;;65.35;29.88;;;2.10;99.90;;;;;;4988706;28;20046;-74
2023/12/03 12:26:46;;;;;;;64.18;29.90;;;2.10;99.90;;;;;;4988132;28;20118;-75
2023/12/03 12:29:35;;;;;;;68.60;30.33;;;2.20;99.90;;;;;;4970878;28;20038;-74
2023/12/03 12:32:21;;;;;;;74.72;30.83;;;2.20;99.90;;;;;;4967562;28;20034;-75
2023/12/03 12:35:08;;;;;;;73.80;33.63;;;2.20;99.90;;;;;;5013090;28;20120;-74
2023/12/03 12:38:01;;;;;;;67.25;29.10;;;2.20;99.90;;;;;;4995634;28;20038;-75
2023/12/03 12:40:54;;;;;;;68.90;30.58;;;2.20;99.90;;;;;;4983045;28;20046;-73
2023/12/03 12:43:57;;;;;;;71.18;35.10;;;2.20;99.90;;;;;;4983715;28;20081;-73
2023/12/03 12:46:54;;;;;;;71.43;29.17;;;2.10;99.90;;;;;;4969422;28;20047;-74
2023/12/03 12:49:51;;;;;;;72.13;30.02;;;2.10;99.90;;;;;;4975563;28;20062;-75
2023/12/03 12:52:37;;;;;;;67.18;31.63;;;2.10;99.90;;;;;;5009395;28;20038;-75
2023/12/03 12:55:27;;;;;;;74.63;30.52;;;2.30;99.90;;;;;;4989299;28;20069;-75
2023/12/03 12:58:13;;;;;;;70.22;30.90;;;2.20;99.90;;;;;;4973259;28;20048;-75
2023/12/03 13:00:59;;;;;;;71.85;29.25;;;2.20;99.90;;;;;;4963081;28;20045;-75
2023/12/03 13:03:45;;;;;;;67.97;29.35;;;2.00;99.90;;;;;;4971561;28;20164;-75
2023/12/03 13:06:32;;;;;;;69.25;29.38;;;2.00;99.90;;;;;;4979203;28;20045;-74
2023/12/03 13:09:18;;;;;;;78.45;32.05;;;1.90;99.90;;;;;;4978266;28;20058;-74
2023/12/03 13:12:04;;;;;;;79.55;36.78;;;1.90;99.90;;;;;;5013169;28;20038;-75
2023/12/03 13:14:50;;;;;;;69.53;30.40;;;1.90;99.90;;;;;;4988162;28;20125;-75
2023/12/03 13:17:49;;;;;;;70.97;32.67;;;1.90;99.90;;;;;;4962541;28;20039;-75
2023/12/03 13:20:35;;;;;;;72.43;33.35;;;1.90;99.90;;;;;;4977007;28;20042;-74
2023/12/03 13:23:22;;;;;;;68.38;30.30;;;1.90;99.90;;;;;;4998259;28;20128;-75
2023/12/03 13:26:08;;;;;;;69.43;31.15;;;1.90;99.90;;;;;;4999319;28;20050;-75
2023/12/03 13:28:54;;;;;;;70.90;30.30;;;1.90;99.90;;;;;;4996830;28;20045;-74
2023/12/03 13:31:40;;;;;;;61.80;28.98;;;1.90;99.90;;;;;;5023701;28;20088;-74
2023/12/03 13:34:26;;;;;;;68.65;29.55;;;1.80;99.90;;;;;;4988238;28;20033;-74
2023/12/03 13:37:12;;;;;;;73.43;33.97;;;1.80;99.90;;;;;;4989023;28;20341;-75
2023/12/03 13:39:59;;;;;;;73.18;32.65;;;1.80;99.90;;;;;;4967741;28;20038;-76
2023/12/03 13:42:52;;;;;;;64.00;29.63;;;1.80;99.90;;;;;;4964740;28;20046;-75
2023/12/03 13:45:39;;;;;;;65.38;30.25;;;1.90;99.90;;;;;;4964530;28;20035;-74
2023/12/03 13:48:25;;;;;;;65.65;28.15;;;1.90;99.90;;;;;;4986735;28;20104;-75
2023/12/03 13:51:12;;;;;;;57.63;29.23;;;1.90;99.90;;;;;;5000183;28;20177;-74
2023/12/03 13:53:58;;;;;;;61.53;28.25;;;2.00;99.90;;;;;;4952715;28;20069;-74
2023/12/03 13:56:44;;;;;;;58.30;27.77;;;1.90;99.90;;;;;;4965769;28;20069;-75
2023/12/03 13:59:30;;;;;;;62.38;26.55;;;2.00;99.90;;;;;;4981068;28;20042;-74
2023/12/03 14:02:16;;;;;;;59.22;28.50;;;2.00;99.90;;;;;;4987766;28;20125;-74
2023/12/03 14:05:03;;;;;;;60.63;27.30;;;2.00;99.90;;;;;;4970294;28;20066;-74
2023/12/03 14:07:49;;;;;;;58.08;27.63;;;2.00;99.90;;;;;;4986252;28;20030;-74
2023/12/03 14:10:35;;;;;;;55.35;29.25;;;2.00;99.90;;;;;;5012944;28;20570;-74
2023/12/03 14:13:22;;;;;;;52.67;25.50;;;2.00;99.90;;;;;;4986939;28;20038;-74
2023/12/03 14:16:08;;;;;;;42.72;20.95;;;2.00;99.90;;;;;;4993036;28;20046;-74
2023/12/03 14:18:55;;;;;;;38.95;17.85;;;1.90;99.90;;;;;;4980791;28;20043;-74